Time;durP1;ratioP1;P1;durP2;ratioP2;P2;SDS_P1;SDS_P2;PMS_P1;PMS_P2;Temp;Humidity;BMP_temperature;BMP_pressure;BME280_temperature;BME280_humidity;BME280_pressure;Samples;Min_cycle;Max_cycle;Signal;HPM_P1;HPM_P2
2021/03/03 00:02:11;;;;;;;13.38;4.32;;;13.90;44.90;;;;;;6152371;29;20031;-84
2021/03/03 00:05:12;;;;;;;7.82;4.03;;;14.00;44.90;;;;;;6126436;29;20476;-83
2021/03/03 00:08:13;;;;;;;15.85;5.63;;;14.00;44.90;;;;;;6150981;28;20074;-84
2021/03/03 00:11:14;;;;;;;11.68;4.18;;;14.00;44.90;;;;;;6136307;29;20043;-85
2021/03/03 00:14:15;;;;;;;9.43;4.78;;;14.10;44.90;;;;;;6155275;28;20057;-84
2021/03/03 00:17:16;;;;;;;10.60;3.90;;;14.00;44.90;;;;;;6140661;29;20031;-83
2021/03/03 00:20:17;;;;;;;9.77;4.53;;;14.00;44.80;;;;;;6140886;29;20035;-83
2021/03/03 00:23:18;;;;;;;11.48;3.88;;;14.10;44.90;;;;;;6140690;29;20035;-83
2021/03/03 00:26:19;;;;;;;14.55;4.50;;;14.00;44.80;;;;;;6157477;29;20047;-83
2021/03/03 00:29:20;;;;;;;15.40;4.30;;;14.10;44.90;;;;;;6122895;28;20053;-83
2021/03/03 00:32:21;;;;;;;13.32;5.00;;;14.00;44.90;;;;;;6116666;29;20031;-83
2021/03/03 00:35:23;;;;;;;10.35;3.78;;;14.00;44.90;;;;;;6104350;29;20036;-83
2021/03/03 00:38:24;;;;;;;9.32;3.97;;;14.00;44.90;;;;;;6122821;29;20400;-84
2021/03/03 00:41:25;;;;;;;11.25;4.45;;;14.00;44.90;;;;;;6143979;29;20055;-82
2021/03/03 00:44:26;;;;;;;14.38;4.75;;;14.00;45.00;;;;;;6128450;29;20473;-83
2021/03/03 00:47:27;;;;;;;14.10;5.15;;;13.90;45.10;;;;;;6139866;29;20469;-83
2021/03/03 00:50:32;;;;;;;12.32;5.22;;;13.90;45.00;;;;;;6124608;29;20039;-83
2021/03/03 00:53:33;;;;;;;10.05;4.07;;;13.90;45.00;;;;;;6129268;29;20060;-83
2021/03/03 00:56:35;;;;;;;13.70;4.68;;;13.90;45.00;;;;;;6123286;29;20063;-83
2021/03/03 00:59:39;;;;;;;10.45;4.82;;;13.90;45.10;;;;;;6136054;29;20043;-84
2021/03/03 01:02:40;;;;;;;21.60;5.15;;;13.90;45.20;;;;;;6141979;29;20059;-83
2021/03/03 01:05:43;;;;;;;12.32;5.10;;;13.80;45.20;;;;;;6163975;28;20071;-82
2021/03/03 01:08:46;;;;;;;8.32;4.28;;;13.90;45.30;;;;;;6166078;28;20027;-83
2021/03/03 01:11:48;;;;;;;15.90;5.32;;;13.80;45.30;;;;;;6157112;29;20042;-83
2021/03/03 01:14:53;;;;;;;11.63;5.07;;;13.80;45.40;;;;;;6149601;29;20131;-83
2021/03/03 01:18:00;;;;;;;9.10;4.38;;;13.80;45.60;;;;;;6128849;29;20031;-84
2021/03/03 01:21:01;;;;;;;13.43;5.38;;;13.80;45.60;;;;;;6126496;29;20499;-84
2021/03/03 01:24:03;;;;;;;9.30;4.18;;;13.70;45.70;;;;;;6115224;28;20074;-83
2021/03/03 01:27:04;;;;;;;9.77;4.15;;;13.70;45.80;;;;;;6124275;29;20493;-83
2021/03/03 01:30:05;;;;;;;8.85;4.93;;;13.70;45.90;;;;;;6122392;29;20137;-83
2021/03/03 01:33:07;;;;;;;10.98;3.90;;;13.60;45.90;;;;;;6123317;29;20047;-83
2021/03/03 01:36:08;;;;;;;16.40;4.10;;;13.60;46.00;;;;;;6124477;29;20494;-83
2021/03/03 01:39:08;;;;;;;9.95;4.22;;;13.50;46.00;;;;;;6143455;29;20050;-82
2021/03/03 01:42:10;;;;;;;17.50;4.63;;;13.70;46.10;;;;;;6143339;29;20045;-83
2021/03/03 01:45:13;;;;;;;13.75;4.30;;;13.50;46.10;;;;;;6142567;29;20044;-83
2021/03/03 01:48:14;;;;;;;11.27;4.70;;;13.40;46.20;;;;;;6143906;29;20075;-83
2021/03/03 01:51:16;;;;;;;13.27;4.82;;;13.40;46.30;;;;;;6134165;29;20461;-83
2021/03/03 01:54:17;;;;;;;11.10;3.67;;;13.40;46.40;;;;;;6177386;28;20039;-83
2021/03/03 01:57:20;;;;;;;11.15;4.55;;;13.40;46.60;;;;;;6164890;28;20371;-83
2021/03/03 02:00:24;;;;;;;13.80;4.13;;;13.30;46.70;;;;;;6164503;28;20035;-84
2021/03/03 02:03:25;;;;;;;12.75;4.45;;;13.20;46.70;;;;;;6147175;28;20031;-83
2021/03/03 02:06:50;;;;;;;12.95;4.20;;;13.20;46.80;;;;;;6178372;28;20482;-83
2021/03/03 02:09:54;;;;;;;12.90;4.63;;;13.20;46.80;;;;;;6133392;28;20458;-83
2021/03/03 02:13:14;;;;;;;9.45;4.10;;;13.20;46.80;;;;;;6150510;28;24829;-83
2021/03/03 02:16:16;;;;;;;9.75;4.65;;;13.30;47.00;;;;;;6140188;28;20046;-83
2021/03/03 02:19:25;;;;;;;11.80;4.90;;;13.20;47.20;;;;;;6174398;28;20379;-83
2021/03/03 02:22:46;;;;;;;12.20;4.85;;;13.20;47.40;;;;;;6133725;29;20039;-83
2021/03/03 02:25:47;;;;;;;11.30;4.70;;;13.20;47.60;;;;;;6131965;29;20050;-83
2021/03/03 02:28:49;;;;;;;12.32;5.30;;;13.20;47.80;;;;;;6148682;29;20066;-83
2021/03/03 02:31:51;;;;;;;19.15;5.40;;;13.10;47.90;;;;;;6116558;29;20047;-83
2021/03/03 02:34:53;;;;;;;13.60;6.28;;;13.20;48.40;;;;;;6116172;29;20059;-83
2021/03/03 02:37:55;;;;;;;22.05;6.63;;;13.10;48.60;;;;;;6139408;28;20472;-83
2021/03/03 02:40:57;;;;;;;12.95;5.55;;;13.10;48.80;;;;;;6116716;29;20027;-83
2021/03/03 02:44:00;;;;;;;16.25;5.63;;;13.10;48.80;;;;;;6098141;29;20481;-84
2021/03/03 02:47:01;;;;;;;14.55;6.25;;;13.10;49.00;;;;;;6110025;29;20035;-83
2021/03/03 02:50:04;;;;;;;15.10;6.70;;;13.00;49.20;;;;;;6116418;29;20051;-84
2021/03/03 02:53:05;;;;;;;16.63;6.35;;;13.00;49.30;;;;;;6150550;29;20047;-83
2021/03/03 02:56:06;;;;;;;15.48;6.45;;;13.00;49.40;;;;;;6133462;28;20330;-83
2021/03/03 02:59:33;;;;;;;18.98;7.15;;;13.00;49.50;;;;;;6134459;29;20456;-83
2021/03/03 03:02:36;;;;;;;15.18;6.43;;;13.00;49.50;;;;;;6119789;29;20039;-82
2021/03/03 03:05:39;;;;;;;13.40;6.10;;;13.00;49.50;;;;;;6126401;29;20031;-82
2021/03/03 03:08:42;;;;;;;15.07;6.20;;;13.00;49.50;;;;;;6130916;28;20471;-83
2021/03/03 03:11:50;;;;;;;14.70;5.75;;;13.00;49.40;;;;;;6104688;29;20472;-83
2021/03/03 03:14:52;;;;;;;10.55;5.68;;;13.00;49.50;;;;;;6099670;29;20036;-83
2021/03/03 03:17:59;;;;;;;13.70;6.00;;;13.00;49.50;;;;;;6084214;29;20051;-83
2021/03/03 03:21:03;;;;;;;15.27;5.50;;;13.00;49.30;;;;;;6138951;29;20085;-83
2021/03/03 03:24:05;;;;;;;12.15;5.93;;;13.00;49.20;;;;;;6150981;29;20155;-83
2021/03/03 03:27:07;;;;;;;15.05;6.32;;;13.00;49.10;;;;;;6124543;29;20099;-83
2021/03/03 03:30:12;;;;;;;16.38;6.38;;;13.00;49.30;;;;;;6149831;29;20046;-83
2021/03/03 03:33:13;;;;;;;12.73;5.75;;;12.90;49.40;;;;;;6125490;29;20126;-84
2021/03/03 03:36:14;;;;;;;16.73;6.57;;;13.00;49.50;;;;;;6125127;29;20042;-84
2021/03/03 03:39:15;;;;;;;13.95;5.75;;;12.90;49.60;;;;;;6148907;28;20047;-83
2021/03/03 03:42:17;;;;;;;12.63;5.60;;;12.90;49.80;;;;;;6128118;28;20597;-83
2021/03/03 03:45:20;;;;;;;10.60;5.72;;;12.80;49.90;;;;;;6142868;28;20127;-83
2021/03/03 03:48:22;;;;;;;12.35;5.68;;;12.90;50.10;;;;;;6121055;28;20507;-83
2021/03/03 03:51:23;;;;;;;12.18;4.70;;;12.80;50.20;;;;;;6138166;28;20038;-83
2021/03/03 03:54:24;;;;;;;11.00;5.47;;;12.80;50.40;;;;;;6149466;28;20031;-82
2021/03/03 03:57:25;;;;;;;15.10;4.72;;;12.70;50.50;;;;;;6129368;28;20125;-82
2021/03/03 04:00:28;;;;;;;12.43;4.63;;;12.60;50.60;;;;;;6138104;28;20438;-83
2021/03/03 04:03:31;;;;;;;12.60;4.63;;;12.60;50.60;;;;;;6138084;28;20031;-84
2021/03/03 04:06:34;;;;;;;14.15;5.35;;;12.50;50.50;;;;;;6143263;28;20037;-84
2021/03/03 04:09:35;;;;;;;12.52;5.82;;;12.60;50.60;;;;;;6137514;28;20430;-84
2021/03/03 04:12:36;;;;;;;11.93;5.82;;;12.60;50.60;;;;;;6145934;28;20126;-83
2021/03/03 04:15:37;;;;;;;13.68;5.78;;;12.60;50.70;;;;;;6157906;28;20474;-84
2021/03/03 04:18:38;;;;;;;14.15;5.97;;;12.50;50.80;;;;;;6156997;28;20031;-84
2021/03/03 04:21:39;;;;;;;14.43;5.50;;;12.40;50.80;;;;;;6154038;28;20376;-84
2021/03/03 04:24:40;;;;;;;14.18;5.97;;;12.40;51.00;;;;;;6123799;28;20046;-83
2021/03/03 04:27:43;;;;;;;19.67;7.47;;;12.40;51.20;;;;;;6155382;28;20380;-83
2021/03/03 04:30:44;;;;;;;16.08;6.88;;;12.30;51.40;;;;;;6167950;28;20537;-83
2021/03/03 04:33:45;;;;;;;12.13;6.50;;;12.30;51.40;;;;;;6150391;28;20042;-84
2021/03/03 04:36:46;;;;;;;20.35;6.68;;;12.30;51.50;;;;;;6156634;28;20384;-83
2021/03/03 04:39:47;;;;;;;21.75;6.63;;;12.20;51.50;;;;;;6148844;28;20090;-83
2021/03/03 04:42:50;;;;;;;22.38;7.15;;;12.20;51.60;;;;;;6120418;28;20031;-83
2021/03/03 04:45:51;;;;;;;17.13;5.90;;;12.20;51.70;;;;;;6160823;28;20036;-83
2021/03/03 04:48:52;;;;;;;17.70;7.32;;;12.10;51.70;;;;;;6141112;28;20059;-83
2021/03/03 04:51:53;;;;;;;20.00;7.10;;;12.00;51.70;;;;;;6143239;28;20031;-83
2021/03/03 04:54:54;;;;;;;18.23;6.72;;;12.20;51.70;;;;;;6177847;28;20049;-83
2021/03/03 04:57:55;;;;;;;16.33;7.18;;;12.10;51.70;;;;;;6147230;28;20364;-84
2021/03/03 05:00:56;;;;;;;15.18;5.88;;;12.20;51.70;;;;;;6145514;28;20032;-84
2021/03/03 05:03:57;;;;;;;12.35;5.53;;;12.20;51.80;;;;;;6175926;28;20383;-84
2021/03/03 05:06:58;;;;;;;9.55;5.32;;;12.20;51.80;;;;;;6170511;28;20098;-85
2021/03/03 05:10:00;;;;;;;14.80;6.47;;;12.20;51.80;;;;;;6136405;28;20050;-83
2021/03/03 05:13:01;;;;;;;11.25;6.35;;;12.10;51.80;;;;;;6145407;29;20121;-84
2021/03/03 05:16:02;;;;;;;21.67;7.80;;;12.20;51.90;;;;;;6128142;28;20038;-83
2021/03/03 05:19:03;;;;;;;20.35;7.70;;;12.10;51.90;;;;;;6154504;28;20062;-84
2021/03/03 05:22:04;;;;;;;18.25;7.90;;;12.20;52.10;;;;;;6152898;28;20482;-84
2021/03/03 05:25:05;;;;;;;26.08;7.80;;;12.10;52.10;;;;;;6150702;28;20039;-84
2021/03/03 05:28:06;;;;;;;17.45;7.88;;;12.10;52.10;;;;;;6142070;28;20463;-83
2021/03/03 05:31:08;;;;;;;18.30;8.95;;;12.10;52.20;;;;;;6158196;28;20047;-83
2021/03/03 05:34:09;;;;;;;27.30;9.18;;;12.10;52.20;;;;;;6132113;28;20063;-84
2021/03/03 05:37:10;;;;;;;19.38;8.32;;;12.10;52.30;;;;;;6140564;28;20066;-84
2021/03/03 05:40:14;;;;;;;19.90;8.52;;;12.00;52.40;;;;;;6137101;28;20040;-84
2021/03/03 05:43:15;;;;;;;19.80;8.77;;;12.00;52.60;;;;;;6145710;28;20442;-83
2021/03/03 05:46:18;;;;;;;18.48;8.05;;;12.00;52.60;;;;;;6145076;28;20049;-83
2021/03/03 05:49:23;;;;;;;21.45;8.25;;;12.00;52.70;;;;;;6160507;28;20134;-83
2021/03/03 05:52:28;;;;;;;26.77;8.10;;;12.00;52.70;;;;;;6157873;28;20085;-83
2021/03/03 05:55:30;;;;;;;20.85;7.47;;;11.90;52.70;;;;;;6122220;28;20479;-83
2021/03/03 05:58:33;;;;;;;20.67;8.02;;;12.00;52.90;;;;;;6148915;28;20063;-83
2021/03/03 06:01:34;;;;;;;19.75;8.05;;;11.90;52.90;;;;;;6140083;28;20102;-83
2021/03/03 06:04:36;;;;;;;18.17;7.30;;;12.00;52.90;;;;;;6187272;28;20039;-85
2021/03/03 06:07:38;;;;;;;27.80;8.70;;;12.00;52.70;;;;;;6192464;28;20039;-84
2021/03/03 06:10:40;;;;;;;17.33;7.20;;;12.00;52.70;;;;;;6156725;28;20043;-84
2021/03/03 06:13:41;;;;;;;15.88;6.38;;;12.10;52.70;;;;;;6134782;28;20035;-84
2021/03/03 06:16:44;;;;;;;16.65;6.97;;;12.10;52.60;;;;;;6144470;28;20479;-85
2021/03/03 06:19:45;;;;;;;12.13;6.40;;;12.10;52.70;;;;;;6140274;28;20039;-83
2021/03/03 06:22:48;;;;;;;11.30;4.82;;;12.10;52.70;;;;;;6169377;28;20034;-84
2021/03/03 06:26:10;;;;;;;13.60;5.18;;;12.10;52.20;;;;;;6158718;28;20035;-83
2021/03/03 06:29:14;;;;;;;10.35;5.28;;;12.10;52.00;;;;;;6143979;28;20039;-83
2021/03/03 06:32:15;;;;;;;16.35;4.22;;;12.10;51.90;;;;;;6164577;28;20047;-83
2021/03/03 06:35:16;;;;;;;17.15;5.10;;;12.10;51.60;;;;;;6157477;28;20470;-82
2021/03/03 06:38:27;;;;;;;13.48;4.35;;;12.10;51.10;;;;;;6140844;28;20047;-84
2021/03/03 06:41:40;;;;;;;24.75;5.75;;;12.00;50.80;;;;;;6132759;28;20460;-84
2021/03/03 06:44:54;;;;;;;21.40;6.65;;;12.10;50.80;;;;;;6137242;28;20452;-83
2021/03/03 06:47:56;;;;;;;26.45;7.30;;;12.10;51.30;;;;;;6136241;28;20031;-81
2021/03/03 06:50:56;;;;;;;17.38;6.35;;;12.10;51.50;;;;;;6152432;28;20057;-83
2021/03/03 06:54:03;;;;;;;13.30;4.93;;;12.20;51.70;;;;;;6147944;28;20043;-84
2021/03/03 06:57:08;;;;;;;13.25;4.50;;;12.20;51.50;;;;;;6148095;28;20363;-81
2021/03/03 07:00:10;;;;;;;15.60;4.97;;;12.20;51.00;;;;;;6155450;28;20364;-81
2021/03/03 07:03:28;;;;;;;14.07;5.05;;;12.20;50.90;;;;;;6141388;28;20031;-81
2021/03/03 07:06:33;;;;;;;11.68;4.72;;;12.20;50.70;;;;;;6132226;28;20039;-82
2021/03/03 07:09:38;;;;;;;19.42;5.15;;;12.10;50.30;;;;;;6140051;28;20389;-81
2021/03/03 07:12:49;;;;;;;8.98;4.55;;;12.10;50.30;;;;;;6156774;28;20039;-81
2021/03/03 07:15:50;;;;;;;10.20;4.65;;;12.10;50.10;;;;;;6141348;28;20391;-82
2021/03/03 07:18:51;;;;;;;20.92;5.55;;;12.10;50.00;;;;;;6150888;28;20038;-81
2021/03/03 07:21:52;;;;;;;12.52;4.40;;;12.10;49.70;;;;;;6157042;28;20452;-82
2021/03/03 07:25:07;;;;;;;15.82;5.30;;;12.10;49.70;;;;;;6165672;28;20035;-83
2021/03/03 07:28:12;;;;;;;12.98;5.13;;;12.10;49.90;;;;;;6132819;28;20039;-81
2021/03/03 07:31:15;;;;;;;12.68;4.80;;;12.10;49.70;;;;;;6134048;28;20071;-82
2021/03/03 07:34:16;;;;;;;13.27;4.35;;;12.10;49.50;;;;;;6149494;28;20084;-81
2021/03/03 07:37:20;;;;;;;10.65;4.60;;;12.10;49.40;;;;;;6164267;28;20137;-82
2021/03/03 07:40:25;;;;;;;12.35;5.30;;;12.10;49.30;;;;;;6135614;28;20122;-83
2021/03/03 07:43:30;;;;;;;12.88;4.60;;;12.10;49.10;;;;;;6133918;28;20039;-81
2021/03/03 07:46:31;;;;;;;16.80;5.30;;;12.10;49.20;;;;;;6139156;28;20038;-81
2021/03/03 07:49:35;;;;;;;10.45;4.70;;;12.10;49.10;;;;;;6126001;28;20035;-82
2021/03/03 07:52:45;;;;;;;18.83;5.20;;;12.10;49.10;;;;;;6135358;28;20031;-79
2021/03/03 07:55:48;;;;;;;17.05;5.45;;;12.20;49.20;;;;;;6164380;28;20034;-81
2021/03/03 07:58:49;;;;;;;14.65;6.03;;;12.20;49.20;;;;;;6176862;28;20038;-83
2021/03/03 08:01:52;;;;;;;18.33;5.85;;;12.10;49.10;;;;;;6145533;28;20050;-82
2021/03/03 08:05:06;;;;;;;24.80;6.43;;;12.30;49.20;;;;;;6140329;28;20039;-81
2021/03/03 08:08:34;;;;;;;12.73;5.45;;;12.30;49.20;;;;;;6139206;28;20209;-81
2021/03/03 08:11:40;;;;;;;20.58;5.45;;;12.40;49.20;;;;;;6124627;28;20063;-81
2021/03/03 08:14:41;;;;;;;15.70;5.78;;;12.40;49.20;;;;;;6151674;28;20034;-81
2021/03/03 08:17:43;;;;;;;14.30;6.07;;;12.40;49.20;;;;;;6157067;28;20042;-82
2021/03/03 08:20:48;;;;;;;20.52;6.90;;;12.50;49.30;;;;;;6139027;28;20035;-80
2021/03/03 08:23:55;;;;;;;15.85;5.55;;;12.60;49.50;;;;;;6143557;28;20038;-81
2021/03/03 08:26:56;;;;;;;15.65;6.75;;;12.60;49.60;;;;;;6134137;28;20417;-81
2021/03/03 08:30:13;;;;;;;21.40;6.53;;;12.70;49.70;;;;;;6133947;28;20097;-82
2021/03/03 08:33:34;;;;;;;22.30;7.60;;;12.70;49.90;;;;;;6126839;28;20097;-81
2021/03/03 08:36:55;;;;;;;22.15;6.63;;;12.80;50.00;;;;;;6144869;28;20054;-82
2021/03/03 08:39:57;;;;;;;18.98;7.03;;;12.90;50.10;;;;;;6043171;29;20045;-81
2021/03/03 08:42:58;;;;;;;16.90;7.15;;;13.00;50.10;;;;;;6072230;29;20041;-83
2021/03/03 08:45:59;;;;;;;26.88;7.03;;;13.00;49.90;;;;;;6041711;29;20038;-84
2021/03/03 08:49:00;;;;;;;24.42;7.43;;;13.10;49.80;;;;;;6042558;29;20423;-79
2021/03/03 08:52:11;;;;;;;33.53;8.50;;;13.20;49.80;;;;;;6057405;29;20055;-79
2021/03/03 08:55:30;;;;;;;22.95;8.07;;;13.30;49.80;;;;;;6071440;29;20048;-79
2021/03/03 08:58:34;;;;;;;20.23;7.72;;;13.30;49.70;;;;;;6039134;29;20045;-78
2021/03/03 09:01:54;;;;;;;22.23;8.32;;;13.40;49.70;;;;;;6056591;29;20164;-79
2021/03/03 09:04:55;;;;;;;22.58;7.82;;;13.40;49.70;;;;;;6055777;29;20465;-79
2021/03/03 09:07:57;;;;;;;25.30;8.50;;;13.40;49.70;;;;;;6038436;29;20836;-81
2021/03/03 09:10:59;;;;;;;25.83;8.40;;;13.50;49.70;;;;;;6058095;29;20193;-80
2021/03/03 09:14:00;;;;;;;27.73;7.38;;;13.50;49.70;;;;;;6076042;29;20045;-78
2021/03/03 09:17:42;;;;;;;18.10;7.88;;;13.50;49.50;;;;;;6135503;28;20049;-81
2021/03/03 09:20:44;;;;;;;34.55;9.00;;;13.60;49.40;;;;;;6141228;28;20054;-81
2021/03/03 09:23:45;;;;;;;21.73;7.63;;;13.50;49.30;;;;;;6161098;28;20045;-82
2021/03/03 09:26:46;;;;;;;33.88;9.05;;;13.50;49.40;;;;;;6138211;28;20031;-88
2021/03/03 09:29:49;;;;;;;22.00;7.90;;;13.50;49.60;;;;;;6130821;29;20510;-89
2021/03/03 09:32:56;;;;;;;33.45;7.90;;;13.50;49.70;;;;;;6142674;28;20042;-88
2021/03/03 09:35:59;;;;;;;20.00;8.02;;;13.60;49.60;;;;;;6119403;28;20413;-88
2021/03/03 09:39:02;;;;;;;23.05;8.93;;;13.70;49.60;;;;;;6113304;28;20051;-80
2021/03/03 09:42:06;;;;;;;25.75;8.80;;;13.80;49.50;;;;;;6127804;28;20043;-79
2021/03/03 09:45:15;;;;;;;26.25;8.93;;;14.00;49.50;;;;;;6158267;28;20386;-80
2021/03/03 09:48:25;;;;;;;21.65;8.38;;;14.10;49.30;;;;;;6158315;28;20034;-80
2021/03/03 09:51:26;;;;;;;22.48;7.90;;;14.20;49.10;;;;;;6173179;28;20487;-80
2021/03/03 09:54:32;;;;;;;24.05;7.80;;;14.20;48.70;;;;;;6142982;28;20039;-80
2021/03/03 09:57:33;;;;;;;26.73;8.02;;;14.30;48.50;;;;;;6162655;28;20042;-81
2021/03/03 10:00:42;;;;;;;21.27;7.93;;;14.30;48.40;;;;;;6142856;28;20058;-80
2021/03/03 10:03:46;;;;;;;21.05;7.22;;;14.40;48.20;;;;;;6150468;28;20114;-80
2021/03/03 10:06:48;;;;;;;18.98;7.22;;;14.50;48.00;;;;;;6158138;28;20155;-82
2021/03/03 10:09:54;;;;;;;18.05;7.55;;;14.50;47.90;;;;;;6165758;28;20126;-82
2021/03/03 10:12:58;;;;;;;26.65;9.02;;;14.60;47.90;;;;;;6157325;28;20061;-82
2021/03/03 10:15:59;;;;;;;16.60;7.43;;;14.60;47.60;;;;;;6175741;28;20089;-80
2021/03/03 10:19:07;;;;;;;21.25;8.30;;;14.70;47.40;;;;;;6145726;28;20038;-80
2021/03/03 10:22:09;;;;;;;17.98;7.93;;;14.60;47.40;;;;;;6172718;28;20046;-80
2021/03/03 10:25:13;;;;;;;15.75;8.18;;;14.60;47.30;;;;;;6172480;28;20035;-80
2021/03/03 10:28:17;;;;;;;22.85;8.73;;;14.60;47.50;;;;;;6154969;28;20669;-81
2021/03/03 10:31:20;;;;;;;24.25;8.50;;;14.60;47.60;;;;;;6133513;28;20375;-82
2021/03/03 10:34:21;;;;;;;35.05;15.70;;;14.60;47.40;;;;;;6158689;28;20472;-81
2021/03/03 10:37:26;;;;;;;27.25;11.23;;;14.60;47.30;;;;;;6149908;28;20074;-80
2021/03/03 10:40:36;;;;;;;25.88;9.23;;;14.70;47.20;;;;;;6142796;28;20086;-80
2021/03/03 10:43:49;;;;;;;22.65;8.35;;;14.80;47.20;;;;;;6149167;28;20098;-82
2021/03/03 10:46:51;;;;;;;19.50;9.63;;;14.80;47.10;;;;;;6168194;28;20031;-80
2021/03/03 10:50:06;;;;;;;34.15;12.50;;;14.90;46.80;;;;;;6129301;28;20103;-81
2021/03/03 10:53:07;;;;;;;46.35;18.38;;;15.00;46.80;;;;;;6165675;28;20053;-81
2021/03/03 10:56:39;;;;;;;45.38;12.95;;;15.10;46.60;;;;;;6146306;28;20045;-80
2021/03/03 11:00:04;;;;;;;34.10;10.77;;;15.20;46.50;;;;;;6154311;28;20054;-81
2021/03/03 11:03:07;;;;;;;30.80;9.48;;;15.30;46.50;;;;;;6163994;28;20073;-81
2021/03/03 11:06:08;;;;;;;24.52;9.55;;;15.30;46.20;;;;;;6153932;28;20182;-80
2021/03/03 11:09:15;;;;;;;26.25;9.32;;;15.40;46.20;;;;;;6178608;28;20065;-82
2021/03/03 11:12:24;;;;;;;26.83;9.15;;;15.40;46.10;;;;;;6192945;28;20459;-82
2021/03/03 11:15:26;;;;;;;19.73;8.20;;;15.50;46.00;;;;;;6133146;28;20066;-82
2021/03/03 11:18:31;;;;;;;22.88;9.30;;;15.50;45.80;;;;;;6184888;28;20117;-82
2021/03/03 11:21:36;;;;;;;19.20;8.65;;;15.50;45.90;;;;;;6152234;28;20066;-82
2021/03/03 11:24:41;;;;;;;23.88;8.35;;;15.50;45.80;;;;;;6146323;28;20042;-81
2021/03/03 11:27:42;;;;;;;26.30;9.93;;;15.50;45.80;;;;;;6094455;28;20039;-82
2021/03/03 11:30:44;;;;;;;28.08;11.07;;;15.60;45.70;;;;;;6141601;28;20113;-82
2021/03/03 11:33:45;;;;;;;21.05;9.18;;;15.70;45.70;;;;;;6157519;28;20364;-84
2021/03/03 11:36:48;;;;;;;28.27;9.23;;;15.80;45.60;;;;;;6149673;28;20030;-82
2021/03/03 11:39:51;;;;;;;20.33;8.73;;;15.80;45.70;;;;;;6146898;28;20042;-82
2021/03/03 11:42:55;;;;;;;25.65;9.30;;;16.00;45.60;;;;;;6152303;28;20035;-81
2021/03/03 11:45:56;;;;;;;25.35;9.77;;;16.00;45.20;;;;;;6156035;28;20046;-80
2021/03/03 11:48:59;;;;;;;20.50;8.50;;;16.10;44.90;;;;;;6151730;28;20120;-83
2021/03/03 11:52:00;;;;;;;15.05;8.52;;;16.10;44.90;;;;;;6164960;28;20153;-81
2021/03/03 11:55:01;;;;;;;19.20;8.55;;;16.20;44.70;;;;;;6164663;28;20109;-80
2021/03/03 11:58:02;;;;;;;18.00;7.97;;;16.20;44.60;;;;;;6186118;28;20042;-81
2021/03/03 12:01:04;;;;;;;20.15;8.10;;;16.00;44.40;;;;;;6159030;28;20038;-82
2021/03/03 12:04:06;;;;;;;28.55;9.93;;;16.10;44.40;;;;;;6178962;28;20056;-79
2021/03/03 12:07:07;;;;;;;32.95;9.05;;;16.10;44.40;;;;;;6180683;28;20050;-80
2021/03/03 12:10:09;;;;;;;31.92;10.73;;;16.30;44.30;;;;;;6163856;28;20495;-83
2021/03/03 12:13:10;;;;;;;22.27;9.10;;;16.40;44.10;;;;;;6166446;28;20045;-85
2021/03/03 12:16:17;;;;;;;30.90;10.13;;;16.50;43.90;;;;;;6162229;28;20105;-84
2021/03/03 12:19:19;;;;;;;19.60;8.82;;;16.70;43.60;;;;;;6180267;28;20054;-85
2021/03/03 12:22:21;;;;;;;24.88;9.43;;;16.80;43.10;;;;;;6161154;28;20042;-83
2021/03/03 12:25:23;;;;;;;21.00;7.70;;;16.90;42.90;;;;;;6147346;28;20053;-82
2021/03/03 14:11:05;;;;;;;17.02;5.90;;;18.00;38.20;;;;;;6165840;23;20202;-78
2021/03/03 14:14:06;;;;;;;13.75;5.75;;;18.00;37.90;;;;;;6128267;28;20043;-79
2021/03/03 14:17:07;;;;;;;19.08;6.05;;;17.90;37.80;;;;;;6110867;29;20050;-77
2021/03/03 14:20:09;;;;;;;15.27;6.72;;;17.90;37.90;;;;;;6130659;29;20043;-78
2021/03/03 14:23:12;;;;;;;15.57;5.85;;;17.90;37.80;;;;;;6109638;29;20420;-77
2021/03/03 14:26:13;;;;;;;17.73;5.78;;;17.90;37.40;;;;;;6112797;29;20082;-77
2021/03/03 14:29:14;;;;;;;18.40;5.72;;;17.90;37.30;;;;;;6109339;29;20039;-77
2021/03/03 14:32:15;;;;;;;12.43;4.95;;;17.80;37.00;;;;;;6131135;29;20047;-77
2021/03/03 14:35:17;;;;;;;16.95;5.57;;;17.80;36.90;;;;;;6129580;29;20039;-79
2021/03/03 14:38:22;;;;;;;20.92;5.95;;;17.60;37.10;;;;;;6126967;28;20031;-77
2021/03/03 14:41:24;;;;;;;16.60;5.65;;;17.60;37.20;;;;;;6115506;29;20043;-78
2021/03/03 14:44:25;;;;;;;15.93;5.55;;;17.60;37.30;;;;;;6113003;29;20050;-77
2021/03/03 14:47:26;;;;;;;13.18;6.03;;;17.50;37.20;;;;;;6129736;29;20035;-77
2021/03/03 14:50:28;;;;;;;18.35;6.50;;;17.50;37.50;;;;;;6109162;29;20039;-77
2021/03/03 14:53:28;;;;;;;13.75;5.88;;;17.40;37.70;;;;;;6124036;29;20087;-77
2021/03/03 14:56:29;;;;;;;22.05;6.22;;;17.30;37.90;;;;;;6130614;29;20039;-77
2021/03/03 14:59:34;;;;;;;18.80;6.50;;;17.30;38.10;;;;;;6126705;29;20034;-77
2021/03/03 15:02:36;;;;;;;17.23;6.65;;;17.30;38.30;;;;;;6129176;29;20031;-77
2021/03/03 15:05:36;;;;;;;18.88;5.90;;;17.20;38.30;;;;;;6107794;29;20055;-77
2021/03/03 15:08:37;;;;;;;21.90;5.35;;;17.30;38.40;;;;;;6125748;29;20111;-77
2021/03/03 15:11:38;;;;;;;14.88;5.50;;;17.30;38.30;;;;;;6127781;28;20113;-77
2021/03/03 15:14:39;;;;;;;19.85;5.18;;;17.30;38.20;;;;;;6142750;28;20086;-77
2021/03/03 15:17:40;;;;;;;20.50;6.50;;;17.30;38.30;;;;;;6126564;28;20039;-77
2021/03/03 15:20:42;;;;;;;15.07;5.28;;;17.30;38.20;;;;;;6130527;29;20050;-77
2021/03/03 15:23:44;;;;;;;13.63;5.43;;;17.20;38.30;;;;;;6148008;29;20035;-76
2021/03/03 15:26:45;;;;;;;25.98;7.22;;;17.30;38.50;;;;;;6128599;29;20055;-78
2021/03/03 15:29:46;;;;;;;16.83;5.68;;;17.30;38.60;;;;;;6130774;29;20384;-77
2021/03/03 15:32:48;;;;;;;18.90;6.47;;;17.30;38.60;;;;;;6129112;29;20058;-78
2021/03/03 15:35:49;;;;;;;17.75;5.78;;;17.20;38.50;;;;;;6116450;28;20210;-76
2021/03/03 15:38:50;;;;;;;24.27;5.07;;;17.20;38.40;;;;;;6119241;28;20117;-76
2021/03/03 15:41:52;;;;;;;12.95;6.05;;;17.20;38.40;;;;;;6113233;29;20038;-77
2021/03/03 15:44:53;;;;;;;14.80;5.43;;;17.10;38.40;;;;;;6129183;28;20031;-76
2021/03/03 15:47:55;;;;;;;13.63;4.50;;;17.10;38.30;;;;;;6099032;29;20460;-77
2021/03/03 15:50:56;;;;;;;16.40;5.38;;;17.00;38.10;;;;;;6129255;29;20102;-76
2021/03/03 15:53:57;;;;;;;13.35;4.65;;;16.90;38.10;;;;;;6097371;29;20558;-76
2021/03/03 15:56:58;;;;;;;17.77;5.38;;;16.90;38.10;;;;;;6124213;29;20055;-77
2021/03/03 15:59:59;;;;;;;13.00;4.80;;;16.80;38.20;;;;;;6124181;29;21509;-77
2021/03/03 16:03:00;;;;;;;24.48;5.65;;;16.80;38.30;;;;;;6130946;29;20043;-77
2021/03/03 16:06:01;;;;;;;13.23;5.47;;;16.80;38.30;;;;;;6124579;29;20381;-77
2021/03/03 16:09:02;;;;;;;16.83;7.47;;;16.80;38.20;;;;;;6100225;29;20036;-75
2021/03/03 16:12:04;;;;;;;19.83;6.32;;;16.90;38.30;;;;;;6112644;29;20377;-77
2021/03/03 16:15:05;;;;;;;16.73;6.40;;;16.90;38.40;;;;;;6107232;29;20039;-78
2021/03/03 16:18:06;;;;;;;18.92;7.03;;;16.90;38.40;;;;;;6127991;29;20050;-77
2021/03/03 16:21:07;;;;;;;23.35;7.50;;;16.90;38.50;;;;;;6120830;29;20107;-77
2021/03/03 16:24:09;;;;;;;19.23;8.38;;;16.80;38.60;;;;;;6123465;29;20050;-77
2021/03/03 16:27:14;;;;;;;21.15;7.72;;;16.90;38.90;;;;;;6145625;29;20042;-77
2021/03/03 16:30:17;;;;;;;15.35;6.65;;;16.80;39.00;;;;;;6129142;29;20039;-78
2021/03/03 16:33:18;;;;;;;17.13;5.50;;;16.80;39.10;;;;;;6134303;29;20039;-78
2021/03/03 16:36:19;;;;;;;29.90;7.10;;;16.80;39.30;;;;;;6132427;29;20050;-77
2021/03/03 16:39:20;;;;;;;20.30;6.85;;;16.80;39.50;;;;;;6124580;29;20353;-76
2021/03/03 16:42:21;;;;;;;22.98;5.60;;;16.70;39.60;;;;;;6101360;29;20102;-76
2021/03/03 16:45:22;;;;;;;17.27;6.78;;;16.70;39.80;;;;;;6100354;29;20036;-76
2021/03/03 16:48:23;;;;;;;17.77;5.95;;;16.70;40.00;;;;;;6134802;29;20078;-77
2021/03/03 16:51:24;;;;;;;16.20;5.97;;;16.70;40.10;;;;;;6142467;29;20107;-76
2021/03/03 16:54:26;;;;;;;13.32;6.45;;;16.60;40.20;;;;;;6141459;29;20039;-79
2021/03/03 16:57:27;;;;;;;16.70;6.72;;;16.60;40.40;;;;;;6154751;29;20062;-78
2021/03/03 17:00:28;;;;;;;22.52;8.70;;;16.60;40.50;;;;;;6112676;29;20519;-78
2021/03/03 17:03:29;;;;;;;20.20;7.30;;;16.50;40.60;;;;;;6135705;29;20058;-77
2021/03/03 17:06:34;;;;;;;22.63;6.93;;;16.50;40.70;;;;;;6134937;29;20031;-77
2021/03/03 17:09:35;;;;;;;17.42;6.10;;;16.50;40.80;;;;;;6138508;28;20039;-78
2021/03/03 17:12:39;;;;;;;22.20;6.75;;;16.40;40.90;;;;;;6114506;29;20055;-78
2021/03/03 17:15:40;;;;;;;16.23;8.10;;;16.40;41.10;;;;;;6155820;28;20038;-77
2021/03/03 17:18:41;;;;;;;19.85;6.85;;;16.30;41.20;;;;;;6125074;28;20056;-78
2021/03/03 17:21:42;;;;;;;18.35;6.45;;;16.30;41.40;;;;;;6117624;28;20035;-77
2021/03/03 17:24:43;;;;;;;25.42;6.90;;;16.20;41.50;;;;;;6142864;28;20039;-76
2021/03/03 17:27:45;;;;;;;27.55;7.05;;;16.20;41.70;;;;;;6140317;28;20043;-75